Pagrindinis puslapis
METAR-TAF:

METAR-TAF

Oro uostai :

Ribeiran Pretas, San Paulas, Brazilija

platuma: 21-08S, ilguma: 047-47W, Aukštis: 549 m

Dabartinis oras

Ataskaita buvo paskelbta 7 minutes, ne 05:00 UTC
Ramus vėjas
Temperatūra 22°C
Drėgmė 88%
Slėgis 1014 hPa
Matomumas 10 km arba daugiau
nėra debesų žemiau 1500 m ir nėra kamuolinių lietaus debesų

METAR: SBRP 070500Z 00000KT CAVOK 22/20 Q1014

Laikas: 02:07 (05:07 UTC)

Prognozė

Ataskaita buvo paskelbta 7 valandos ir 7 minutes, ne 22:00 UTC
Prognozė galioja nuo 07 metu 00 UTC su 07 metu 12 UTC
Vėjas kt iš Šiaurės
Matomumas 10 km arba daugiau
nėra debesų žemiau 1500 m ir nėra kamuolinių lietaus debesų
Tapsmas
nuo 07 metu 09 UTC su 07 metu 11 UTC
Vėjas 4 kt nuo kintamojo kryptimis
Mažai debesys ne aukštis 4000 ft

TAF: SBRP 062200Z 0700/0712 00000KT CAVOK TX28/0700Z TN21/0709Z BECMG 0709/0711 VRB04KT FEW040 RMK PGE

Orai ataskaitas ir orų prognozės (METAR, TAF).

turimą stotys yra geltonos ir raudonos taškus žemėlapyje.

Perkelti pele per norėdami pamatyti stoties vardą.

Tada spustelėkite, norėdami matyti oro stebėjimo ir prognozės.

Norėdami pakeisti žemėlapį: spustelėkite ant žalios mygtukų su juodo kryžiaus žemyn,; žalią mygtuką su brūkšneliu, jei norite nutolinti; arba žalių rodyklių gretimoms žemėlapius.


METAR-TAF: